Time;durP1;ratioP1;P1;durP2;ratioP2;P2;SDS_P1;SDS_P2;PMS_P1;PMS_P2;Temp;Humidity;BMP_temperature;BMP_pressure;BME280_temperature;BME280_humidity;BME280_pressure;Samples;Min_cycle;Max_cycle;Signal;HPM_P1;HPM_P2
2021/04/09 00:07:32;;;;;;;2.10;1.40;;;;;;;;;;4317222;28;20097;-59
2021/04/09 00:09:59;;;;;;;1.58;1.20;;;;;;;;;;4218471;34;20094;-59
2021/04/09 00:12:25;;;;;;;1.70;1.50;;;;;;;;;;4218531;34;20094;-60
2021/04/09 00:14:51;;;;;;;1.92;1.50;;;;;;;;;;4218456;34;20188;-59
2021/04/09 00:17:17;;;;;;;4.03;1.70;;;;;;;;;;4218428;34;20700;-59
2021/04/09 00:19:42;;;;;;;2.10;1.90;;;;;;;;;;4218501;34;20105;-59
2021/04/09 00:22:08;;;;;;;1.83;1.60;;;;;;;;;;4218503;34;20196;-59
2021/04/09 00:24:34;;;;;;;1.37;1.27;;;;;;;;;;4217966;34;20113;-59
2021/04/09 00:27:00;;;;;;;1.40;1.30;;;;;;;;;;4218100;34;20137;-59
2021/04/09 00:29:26;;;;;;;1.80;1.60;;;;;;;;;;4218378;34;20128;-59
2021/04/09 00:31:52;;;;;;;2.47;1.60;;;;;;;;;;4218323;34;20113;-59
2021/04/09 00:34:18;;;;;;;1.92;1.55;;;;;;;;;;4218366;34;20121;-59
2021/04/09 00:36:45;;;;;;;2.62;1.70;;;;;;;;;;4218493;34;20191;-59
2021/04/09 00:39:10;;;;;;;3.00;1.60;;;;;;;;;;4218510;34;20599;-59
2021/04/09 00:41:37;;;;;;;1.80;1.48;;;;;;;;;;4218125;34;20102;-59
2021/04/09 00:44:07;;;;;;;1.83;1.60;;;;;;;;;;4218319;34;20125;-59
2021/04/09 00:46:34;;;;;;;1.87;1.58;;;;;;;;;;4218070;34;20124;-59
2021/04/09 00:49:00;;;;;;;1.40;1.30;;;;;;;;;;4218200;34;20472;-58
2021/04/09 00:51:26;;;;;;;1.10;1.10;;;;;;;;;;4218394;34;20117;-59
2021/04/09 00:53:52;;;;;;;1.55;1.45;;;;;;;;;;4205526;34;20234;-59
2021/04/09 00:56:19;;;;;;;1.45;1.30;;;;;;;;;;4205035;34;20228;-59
2021/04/09 00:58:45;;;;;;;1.50;1.40;;;;;;;;;;4193733;34;20525;-58
2021/04/09 01:01:11;;;;;;;1.33;1.23;;;;;;;;;;4193621;34;20117;-59
2021/04/09 01:03:38;;;;;;;1.70;1.37;;;;;;;;;;4193830;34;20097;-58
2021/04/09 01:06:04;;;;;;;1.55;1.45;;;;;;;;;;4217609;34;20141;-59
2021/04/09 01:08:30;;;;;;;2.97;1.45;;;;;;;;;;4218188;34;20625;-59
2021/04/09 01:10:57;;;;;;;1.60;1.50;;;;;;;;;;4218180;34;20089;-59
2021/04/09 01:13:23;;;;;;;1.05;1.05;;;;;;;;;;4217999;34;20158;-59
2021/04/09 01:15:50;;;;;;;1.08;1.08;;;;;;;;;;4217879;34;20125;-59
2021/04/09 01:18:21;;;;;;;1.42;1.33;;;;;;;;;;4205237;34;20121;-59
2021/04/09 01:21:38;;;;;;;1.65;1.52;;;;;;;;;;4204826;34;20613;-59
2021/04/09 01:24:46;;;;;;;1.80;1.30;;;;;;;;;;4193921;34;20236;-59
2021/04/09 01:27:43;;;;;;;1.60;1.50;;;;;;;;;;4206798;34;20117;-60
2021/04/09 01:30:18;;;;;;;2.45;1.50;;;;;;;;;;4217775;34;20096;-60
2021/04/09 01:32:44;;;;;;;1.70;1.45;;;;;;;;;;4217645;34;20124;-58
2021/04/09 01:35:14;;;;;;;1.73;1.50;;;;;;;;;;4204714;34;20120;-58
2021/04/09 01:37:42;;;;;;;1.50;1.40;;;;;;;;;;4206915;34;20170;-59
2021/04/09 01:40:17;;;;;;;2.10;1.62;;;;;;;;;;4195488;34;20209;-59
2021/04/09 01:42:43;;;;;;;1.62;1.40;;;;;;;;;;4193524;34;20465;-59
2021/04/09 01:45:10;;;;;;;3.40;1.40;;;;;;;;;;4181956;34;20212;-59
2021/04/09 01:47:36;;;;;;;4.00;1.37;;;;;;;;;;4193264;34;20110;-59
2021/04/09 01:50:03;;;;;;;1.40;1.25;;;;;;;;;;4181652;34;20134;-60
2021/04/09 01:52:31;;;;;;;1.40;1.30;;;;;;;;;;4206077;34;20118;-60
2021/04/09 01:54:57;;;;;;;1.15;1.08;;;;;;;;;;4192982;34;20193;-60
2021/04/09 01:57:23;;;;;;;2.17;1.60;;;;;;;;;;4205758;34;20229;-60
2021/04/09 01:59:49;;;;;;;1.90;1.52;;;;;;;;;;4193153;34;20179;-60
2021/04/09 02:02:18;;;;;;;2.67;1.23;;;;;;;;;;4193121;34;20106;-60
2021/04/09 02:04:44;;;;;;;1.55;1.37;;;;;;;;;;4181536;34;20114;-60
2021/04/09 02:07:11;;;;;;;2.45;1.80;;;;;;;;;;4196245;34;20102;-60
2021/04/09 02:09:37;;;;;;;3.50;2.40;;;;;;;;;;4195615;34;20193;-60
2021/04/09 02:12:03;;;;;;;3.70;2.40;;;;;;;;;;4206542;34;20152;-60
2021/04/09 02:14:29;;;;;;;2.47;2.15;;;;;;;;;;4206796;34;20125;-59
2021/04/09 02:16:55;;;;;;;3.65;2.62;;;;;;;;;;4206664;34;20117;-59
2021/04/09 02:19:23;;;;;;;3.25;2.10;;;;;;;;;;4206670;34;20129;-59
2021/04/09 02:21:49;;;;;;;2.30;1.83;;;;;;;;;;4206913;34;20114;-59
2021/04/09 02:24:15;;;;;;;2.42;1.60;;;;;;;;;;4219547;34;20852;-59
2021/04/09 02:26:41;;;;;;;1.75;1.65;;;;;;;;;;4219528;34;20116;-59
2021/04/09 02:29:06;;;;;;;1.48;1.25;;;;;;;;;;4195122;34;20112;-59
2021/04/09 02:31:32;;;;;;;4.78;2.70;;;;;;;;;;4219351;34;20597;-60
2021/04/09 02:33:58;;;;;;;4.03;3.25;;;;;;;;;;4206817;34;20464;-59
2021/04/09 02:36:26;;;;;;;3.42;2.45;;;;;;;;;;4219368;34;20106;-60
2021/04/09 02:39:12;;;;;;;1.37;1.27;;;;;;;;;;4219386;34;20082;-60
2021/04/09 02:41:43;;;;;;;1.58;1.48;;;;;;;;;;4206261;34;20109;-59
2021/04/09 02:44:10;;;;;;;2.33;1.42;;;;;;;;;;4219622;34;20125;-60
2021/04/09 02:46:44;;;;;;;2.25;1.70;;;;;;;;;;4206438;34;20457;-59
2021/04/09 02:49:13;;;;;;;2.22;1.50;;;;;;;;;;4205867;34;20200;-60
2021/04/09 02:51:41;;;;;;;1.60;1.45;;;;;;;;;;4206459;34;20281;-58
2021/04/09 02:54:09;;;;;;;2.05;1.60;;;;;;;;;;4206640;34;20097;-59
2021/04/09 02:56:37;;;;;;;3.50;2.28;;;;;;;;;;4206482;34;20128;-58
2021/04/09 02:59:03;;;;;;;1.80;1.42;;;;;;;;;;4206267;34;20100;-59
2021/04/09 03:01:28;;;;;;;2.05;1.73;;;;;;;;;;4194654;34;20108;-58
2021/04/09 03:03:55;;;;;;;2.20;1.90;;;;;;;;;;4219281;34;20537;-59
2021/04/09 03:06:21;;;;;;;3.15;2.30;;;;;;;;;;4205951;34;20101;-57
2021/04/09 03:08:47;;;;;;;2.42;1.90;;;;;;;;;;4205989;34;20185;-58
2021/04/09 03:11:13;;;;;;;2.85;2.00;;;;;;;;;;4206304;34;20196;-58
2021/04/09 03:13:39;;;;;;;3.00;1.90;;;;;;;;;;4218867;34;20101;-59
2021/04/09 03:16:05;;;;;;;2.70;1.70;;;;;;;;;;4194590;34;20364;-59
2021/04/09 03:18:34;;;;;;;1.85;1.40;;;;;;;;;;4194642;34;20105;-58
2021/04/09 03:21:00;;;;;;;1.60;1.50;;;;;;;;;;4218832;34;20098;-56
2021/04/09 03:23:26;;;;;;;1.40;1.30;;;;;;;;;;4219137;34;20197;-58
2021/04/09 03:25:52;;;;;;;1.60;1.50;;;;;;;;;;4219796;34;20552;-60
2021/04/09 03:28:18;;;;;;;1.45;1.35;;;;;;;;;;4218714;34;20124;-58
2021/04/09 03:30:55;;;;;;;1.70;1.60;;;;;;;;;;4218851;34;20537;-60
2021/04/09 03:33:22;;;;;;;1.80;1.70;;;;;;;;;;4219103;34;20201;-61
2021/04/09 03:35:48;;;;;;;3.40;2.12;;;;;;;;;;4218945;34;20203;-61
2021/04/09 03:38:14;;;;;;;1.98;1.77;;;;;;;;;;4218835;34;20209;-57
2021/04/09 03:40:41;;;;;;;1.60;1.50;;;;;;;;;;4218772;34;20123;-59
2021/04/09 03:43:10;;;;;;;1.92;1.60;;;;;;;;;;4218624;34;20293;-61
2021/04/09 03:45:36;;;;;;;1.45;1.35;;;;;;;;;;4218664;34;20221;-60
2021/04/09 03:48:02;;;;;;;1.85;1.75;;;;;;;;;;4218978;34;20113;-58
2021/04/09 03:50:28;;;;;;;1.70;1.60;;;;;;;;;;4218909;34;20209;-59
2021/04/09 03:52:54;;;;;;;3.00;1.70;;;;;;;;;;4218648;34;20109;-60
2021/04/09 03:55:20;;;;;;;1.62;1.52;;;;;;;;;;4206138;34;20116;-59
2021/04/09 03:57:46;;;;;;;2.05;1.85;;;;;;;;;;4218589;34;20104;-59
2021/04/09 04:00:12;;;;;;;2.53;2.30;;;;;;;;;;4217689;34;20124;-60
2021/04/09 04:02:38;;;;;;;2.47;2.28;;;;;;;;;;4218869;34;20109;-59
2021/04/09 04:05:05;;;;;;;3.30;2.80;;;;;;;;;;4218842;34;20101;-59
2021/04/09 04:07:31;;;;;;;3.28;2.47;;;;;;;;;;4218239;34;20102;-59
2021/04/09 04:09:57;;;;;;;2.95;2.65;;;;;;;;;;4218789;34;20111;-59
2021/04/09 04:12:22;;;;;;;3.95;3.08;;;;;;;;;;4218430;34;20136;-59
2021/04/09 04:14:48;;;;;;;3.80;3.17;;;;;;;;;;4218535;34;20126;-60
2021/04/09 04:17:14;;;;;;;4.07;3.65;;;;;;;;;;4218387;34;20135;-60
2021/04/09 04:19:40;;;;;;;3.55;3.17;;;;;;;;;;4218755;34;20154;-60
2021/04/09 04:22:06;;;;;;;2.80;2.17;;;;;;;;;;4218302;34;20112;-60
2021/04/09 04:24:32;;;;;;;1.98;1.85;;;;;;;;;;4218394;34;20108;-61
2021/04/09 04:26:58;;;;;;;2.75;1.80;;;;;;;;;;4218316;34;20119;-59
2021/04/09 04:29:24;;;;;;;2.47;1.70;;;;;;;;;;4218455;34;20515;-59
2021/04/09 04:31:49;;;;;;;3.42;1.90;;;;;;;;;;4218462;34;20120;-58
2021/04/09 04:34:15;;;;;;;5.75;1.92;;;;;;;;;;4205469;34;20132;-60
2021/04/09 04:36:41;;;;;;;2.55;2.00;;;;;;;;;;4218258;34;20204;-60
2021/04/09 04:39:07;;;;;;;3.75;2.15;;;;;;;;;;4218403;34;20204;-60
2021/04/09 04:41:33;;;;;;;3.53;2.10;;;;;;;;;;4218372;34;20113;-60
2021/04/09 04:43:59;;;;;;;3.25;2.25;;;;;;;;;;4218411;34;20457;-60
2021/04/09 04:46:25;;;;;;;3.10;2.17;;;;;;;;;;4218097;34;20112;-58
2021/04/09 04:48:51;;;;;;;4.47;2.60;;;;;;;;;;4218189;34;20101;-58
2021/04/09 04:51:18;;;;;;;2.20;2.00;;;;;;;;;;4218017;34;20124;-58
2021/04/09 04:53:44;;;;;;;4.18;2.30;;;;;;;;;;4218287;34;20218;-60
2021/04/09 04:56:10;;;;;;;4.72;2.30;;;;;;;;;;4218286;34;20204;-59
2021/04/09 04:58:36;;;;;;;3.08;2.15;;;;;;;;;;4218038;34;20121;-60
2021/04/09 05:01:02;;;;;;;2.53;2.05;;;;;;;;;;4218232;34;20186;-59
2021/04/09 05:03:27;;;;;;;2.42;2.00;;;;;;;;;;4218060;34;20125;-59
2021/04/09 05:05:53;;;;;;;3.05;2.53;;;;;;;;;;4217800;34;20508;-59
2021/04/09 05:08:19;;;;;;;3.67;3.12;;;;;;;;;;4218044;34;20121;-59
2021/04/09 05:10:45;;;;;;;3.62;3.10;;;;;;;;;;4217906;34;20715;-59
2021/04/09 05:13:11;;;;;;;4.15;3.05;;;;;;;;;;4219983;34;20113;-59
2021/04/09 05:15:37;;;;;;;4.20;2.90;;;;;;;;;;4219865;34;20112;-59
2021/04/09 05:18:03;;;;;;;3.05;2.75;;;;;;;;;;4219968;34;20097;-58
2021/04/09 05:20:29;;;;;;;3.15;2.53;;;;;;;;;;4219946;34;20112;-59
2021/04/09 05:22:55;;;;;;;3.22;2.40;;;;;;;;;;4220009;34;20509;-58
2021/04/09 05:25:22;;;;;;;4.57;2.60;;;;;;;;;;4220090;34;20104;-59
2021/04/09 05:27:48;;;;;;;4.72;3.03;;;;;;;;;;4219973;34;20098;-60
2021/04/09 05:30:14;;;;;;;4.07;3.28;;;;;;;;;;4219959;34;20190;-59
2021/04/09 05:32:40;;;;;;;4.12;3.37;;;;;;;;;;4219897;34;20105;-60
2021/04/09 05:35:07;;;;;;;4.00;3.20;;;;;;;;;;4220008;34;20114;-59
2021/04/09 05:37:34;;;;;;;3.45;3.10;;;;;;;;;;4219873;34;20129;-59
2021/04/09 05:40:01;;;;;;;3.25;2.95;;;;;;;;;;4219896;34;20105;-60
2021/04/09 05:42:27;;;;;;;2.95;2.62;;;;;;;;;;4220035;34;20123;-61
2021/04/09 05:44:53;;;;;;;3.28;2.58;;;;;;;;;;4219820;34;20108;-60
2021/04/09 05:47:19;;;;;;;2.17;1.95;;;;;;;;;;4219680;34;20137;-61
2021/04/09 05:49:44;;;;;;;1.83;1.73;;;;;;;;;;4219897;34;20155;-61
2021/04/09 05:52:10;;;;;;;2.50;2.00;;;;;;;;;;4220027;34;20536;-61
2021/04/09 05:54:37;;;;;;;2.33;2.10;;;;;;;;;;4219987;34;20121;-60
2021/04/09 05:57:04;;;;;;;3.20;2.42;;;;;;;;;;4219871;34;20133;-61
2021/04/09 05:59:30;;;;;;;2.75;2.20;;;;;;;;;;4219695;34;20109;-61
2021/04/09 06:01:56;;;;;;;2.50;2.20;;;;;;;;;;4219718;34;20449;-61
2021/04/09 06:04:21;;;;;;;2.05;1.85;;;;;;;;;;4219664;34;20628;-60
2021/04/09 06:06:47;;;;;;;1.80;1.70;;;;;;;;;;4219553;34;20129;-61
2021/04/09 06:09:13;;;;;;;1.60;1.50;;;;;;;;;;4219693;34;20156;-61
2021/04/09 06:11:39;;;;;;;2.70;1.70;;;;;;;;;;4206533;34;20481;-61
2021/04/09 06:14:05;;;;;;;2.15;1.70;;;;;;;;;;4219683;34;20558;-61
2021/04/09 06:16:31;;;;;;;4.10;1.67;;;;;;;;;;4219549;34;20145;-61
2021/04/09 06:18:57;;;;;;;1.95;1.70;;;;;;;;;;4219499;34;20216;-60
2021/04/09 06:21:23;;;;;;;1.70;1.60;;;;;;;;;;4219509;34;20124;-61
2021/04/09 06:23:49;;;;;;;1.73;1.40;;;;;;;;;;4218798;34;20522;-61
2021/04/09 06:26:15;;;;;;;2.08;1.87;;;;;;;;;;4219655;34;20137;-61
2021/04/09 06:28:41;;;;;;;2.05;1.52;;;;;;;;;;4206615;34;20465;-61
2021/04/09 06:31:07;;;;;;;1.77;1.60;;;;;;;;;;4219341;34;20121;-61
2021/04/09 06:33:33;;;;;;;2.15;1.92;;;;;;;;;;4219363;34;20136;-60
2021/04/09 06:35:59;;;;;;;2.50;2.30;;;;;;;;;;4219606;34;20588;-61
2021/04/09 06:38:25;;;;;;;2.90;2.42;;;;;;;;;;4206364;34;20125;-61
2021/04/09 06:40:51;;;;;;;4.12;2.87;;;;;;;;;;4219257;34;20132;-61
2021/04/09 06:43:18;;;;;;;4.00;2.70;;;;;;;;;;4206698;34;20117;-61
2021/04/09 06:45:44;;;;;;;2.78;1.75;;;;;;;;;;4206432;34;20117;-61
2021/04/09 06:48:10;;;;;;;1.65;1.55;;;;;;;;;;4219231;34;20240;-61
2021/04/09 06:50:36;;;;;;;1.92;1.60;;;;;;;;;;4219220;34;20204;-61
2021/04/09 06:53:02;;;;;;;2.15;1.95;;;;;;;;;;4219391;34;20129;-59
2021/04/09 06:55:28;;;;;;;2.25;2.00;;;;;;;;;;4219184;34;20477;-60
2021/04/09 06:57:54;;;;;;;2.00;1.80;;;;;;;;;;4219615;34;20196;-61
2021/04/09 07:00:26;;;;;;;2.72;2.30;;;;;;;;;;4219219;34;20124;-60
2021/04/09 07:02:52;;;;;;;3.10;2.00;;;;;;;;;;4206415;34;20124;-61
2021/04/09 07:05:18;;;;;;;2.50;2.30;;;;;;;;;;4219197;34;20618;-61
2021/04/09 07:07:44;;;;;;;2.70;2.50;;;;;;;;;;4218940;34;20109;-60
2021/04/09 07:10:10;;;;;;;3.50;2.80;;;;;;;;;;4219236;34;20488;-61
2021/04/09 07:12:36;;;;;;;2.30;2.10;;;;;;;;;;4218963;34;20176;-61
2021/04/09 07:15:06;;;;;;;3.35;2.47;;;;;;;;;;4219148;34;20098;-61
2021/04/09 07:17:37;;;;;;;5.10;3.10;;;;;;;;;;4219027;34;20177;-60
2021/04/09 07:20:16;;;;;;;6.15;5.50;;;;;;;;;;4219021;34;20150;-61
2021/04/09 07:22:43;;;;;;;2.92;2.62;;;;;;;;;;4218929;34;20113;-60
2021/04/09 07:25:09;;;;;;;4.22;2.97;;;;;;;;;;4219024;34;20437;-60
2021/04/09 07:27:36;;;;;;;2.33;2.00;;;;;;;;;;4218924;34;20136;-59
2021/04/09 07:30:03;;;;;;;3.15;2.85;;;;;;;;;;4219056;34;20200;-61
2021/04/09 07:32:30;;;;;;;2.78;2.50;;;;;;;;;;4205919;34;20085;-61
2021/04/09 07:35:04;;;;;;;3.28;2.28;;;;;;;;;;4218962;34;20181;-61
2021/04/09 07:37:47;;;;;;;2.20;2.00;;;;;;;;;;4218958;34;20196;-61
2021/04/09 07:40:34;;;;;;;2.22;1.67;;;;;;;;;;4219096;34;20109;-62
2021/04/09 07:43:01;;;;;;;1.83;1.70;;;;;;;;;;4218468;34;20608;-62
2021/04/09 07:45:28;;;;;;;1.60;1.50;;;;;;;;;;4218785;34;20511;-62
2021/04/09 07:47:57;;;;;;;2.70;1.60;;;;;;;;;;4219092;34;20113;-62
2021/04/09 07:50:45;;;;;;;1.80;1.70;;;;;;;;;;4218854;34;20101;-62
2021/04/09 07:53:30;;;;;;;3.22;1.50;;;;;;;;;;4218710;34;20219;-62
2021/04/09 07:56:06;;;;;;;3.87;1.80;;;;;;;;;;4206620;34;20136;-62
2021/04/09 07:58:36;;;;;;;3.47;2.00;;;;;;;;;;4218691;34;20501;-62
2021/04/09 08:01:03;;;;;;;2.50;2.30;;;;;;;;;;4218553;34;20119;-62
2021/04/09 08:03:39;;;;;;;2.10;1.90;;;;;;;;;;4218577;34;20528;-62
2021/04/09 08:06:09;;;;;;;1.73;1.62;;;;;;;;;;4206491;34;20125;-62
2021/04/09 08:08:35;;;;;;;2.05;1.85;;;;;;;;;;4218530;34;20545;-62
2021/04/09 08:11:20;;;;;;;1.70;1.60;;;;;;;;;;4218413;34;20101;-61
2021/04/09 08:14:08;;;;;;;1.90;1.80;;;;;;;;;;4218536;34;20097;-61
2021/04/09 08:16:44;;;;;;;2.12;1.98;;;;;;;;;;4218650;34;20113;-61
2021/04/09 08:19:11;;;;;;;2.37;1.95;;;;;;;;;;4218481;34;20159;-61
2021/04/09 08:21:39;;;;;;;2.85;2.25;;;;;;;;;;4218442;34;20537;-61
2021/04/09 08:24:06;;;;;;;2.45;2.25;;;;;;;;;;4218456;34;20446;-60
2021/04/09 08:26:32;;;;;;;4.22;2.03;;;;;;;;;;4218515;34;20136;-61
2021/04/09 08:28:59;;;;;;;3.65;1.80;;;;;;;;;;4218503;34;20113;-60
2021/04/09 08:31:25;;;;;;;2.20;2.00;;;;;;;;;;4193867;34;20108;-61
2021/04/09 08:33:51;;;;;;;2.90;2.10;;;;;;;;;;4205542;34;20110;-61
2021/04/09 08:36:17;;;;;;;2.20;2.00;;;;;;;;;;4205454;34;20122;-61
2021/04/09 08:38:43;;;;;;;1.95;1.80;;;;;;;;;;4218568;34;20462;-62
2021/04/09 08:41:10;;;;;;;2.30;2.10;;;;;;;;;;4218455;34;20109;-61
2021/04/09 08:43:37;;;;;;;2.35;2.08;;;;;;;;;;4218575;34;20446;-61
2021/04/09 08:46:05;;;;;;;2.12;1.90;;;;;;;;;;4218665;34;20114;-62
2021/04/09 08:48:31;;;;;;;2.10;1.90;;;;;;;;;;4207802;34;20126;-61
2021/04/09 08:50:57;;;;;;;2.00;1.80;;;;;;;;;;4195721;34;20698;-61
2021/04/09 08:53:24;;;;;;;2.67;2.08;;;;;;;;;;4220568;34;20121;-62
2021/04/09 08:55:50;;;;;;;3.10;2.17;;;;;;;;;;4220207;34;20109;-62
2021/04/09 08:58:17;;;;;;;4.12;2.20;;;;;;;;;;4220253;34;20100;-62
2021/04/09 09:00:44;;;;;;;3.22;2.60;;;;;;;;;;4220437;34;20188;-61
2021/04/09 09:03:29;;;;;;;2.80;2.12;;;;;;;;;;4220150;34;20133;-62
2021/04/09 09:06:00;;;;;;;2.03;1.93;;;;;;;;;;4219974;34;20117;-61
2021/04/09 09:08:44;;;;;;;2.92;2.10;;;;;;;;;;4220168;34;20121;-62
2021/04/09 09:11:11;;;;;;;5.25;2.08;;;;;;;;;;4220325;34;20117;-60
2021/04/09 09:13:44;;;;;;;2.00;1.90;;;;;;;;;;4220280;34;20558;-62
2021/04/09 09:16:19;;;;;;;2.05;1.80;;;;;;;;;;4220240;34;20090;-61
2021/04/09 09:18:52;;;;;;;2.20;2.00;;;;;;;;;;4220148;34;20487;-60
2021/04/09 09:21:20;;;;;;;2.40;2.20;;;;;;;;;;4220034;34;20468;-61
2021/04/09 09:23:59;;;;;;;2.78;2.15;;;;;;;;;;4220113;34;20097;-61
2021/04/09 09:26:35;;;;;;;3.00;2.20;;;;;;;;;;4220085;34;20110;-61
2021/04/09 09:29:14;;;;;;;2.25;2.05;;;;;;;;;;4220059;34;20125;-60
2021/04/09 09:31:57;;;;;;;2.30;2.10;;;;;;;;;;4219976;34;20120;-59
2021/04/09 09:34:49;;;;;;;2.17;1.98;;;;;;;;;;4220048;34;20202;-60
2021/04/09 09:37:28;;;;;;;2.42;1.87;;;;;;;;;;4219519;34;20137;-60
2021/04/09 09:39:55;;;;;;;3.85;2.20;;;;;;;;;;4219852;34;20113;-60
2021/04/09 09:42:21;;;;;;;2.80;2.03;;;;;;;;;;4219732;34;20518;-60
2021/04/09 09:44:51;;;;;;;1.70;1.60;;;;;;;;;;4219898;34;20474;-60
2021/04/09 09:47:20;;;;;;;2.78;1.70;;;;;;;;;;4219799;34;20712;-61
2021/04/09 09:50:01;;;;;;;3.62;1.80;;;;;;;;;;4219922;34;20105;-60
2021/04/09 09:52:40;;;;;;;1.75;1.50;;;;;;;;;;4220009;34;20534;-60
2021/04/09 09:55:35;;;;;;;1.75;1.65;;;;;;;;;;4219839;34;20102;-60
2021/04/09 09:58:19;;;;;;;1.83;1.67;;;;;;;;;;4219698;34;20552;-60
2021/04/09 10:00:54;;;;;;;2.03;1.80;;;;;;;;;;4219529;34;20149;-62
2021/04/09 10:03:21;;;;;;;;;;;;;;;;;;4220109;34;20506;-62
2021/04/09 10:06:04;;;;;;;2.00;1.80;;;;;;;;;;4219524;34;19976;-62
2021/04/09 10:08:33;;;;;;;4.25;1.80;;;;;;;;;;4216578;34;20571;-63
2021/04/09 10:11:02;;;;;;;2.10;1.90;;;;;;;;;;4217622;33;20154;-61
2021/04/09 10:13:28;;;;;;;1.95;1.77;;;;;;;;;;4219419;34;20573;-61
2021/04/09 10:16:05;;;;;;;1.70;1.42;;;;;;;;;;4218726;33;20145;-60
2021/04/09 10:18:31;;;;;;;1.60;1.50;;;;;;;;;;4205626;34;20121;-60
2021/04/09 10:21:10;;;;;;;1.60;1.50;;;;;;;;;;4205310;34;20198;-62
2021/04/09 10:23:36;;;;;;;1.70;1.60;;;;;;;;;;4205771;34;20532;-60
2021/04/09 10:26:02;;;;;;;1.70;1.60;;;;;;;;;;4192165;34;20139;-61
2021/04/09 10:28:32;;;;;;;1.77;1.67;;;;;;;;;;4192526;34;20095;-61
2021/04/09 10:31:15;;;;;;;1.83;1.73;;;;;;;;;;4215655;33;20090;-61
2021/04/09 10:33:42;;;;;;;2.03;1.83;;;;;;;;;;4205507;34;20197;-60
2021/04/09 10:36:28;;;;;;;2.28;1.80;;;;;;;;;;4204440;34;20125;-61
2021/04/09 10:39:15;;;;;;;1.90;1.80;;;;;;;;;;4218753;34;20541;-61
2021/04/09 10:41:43;;;;;;;1.80;1.70;;;;;;;;;;4219014;34;20109;-61
2021/04/09 10:44:17;;;;;;;1.87;1.70;;;;;;;;;;4210665;34;20120;-62
2021/04/09 10:46:45;;;;;;;1.67;1.50;;;;;;;;;;4217853;33;20728;-60
2021/04/09 10:49:16;;;;;;;1.80;1.70;;;;;;;;;;4217270;34;20203;-59
2021/04/09 10:51:52;;;;;;;2.87;1.83;;;;;;;;;;4219120;33;20108;-59
2021/04/09 10:54:19;;;;;;;2.87;2.10;;;;;;;;;;4219028;34;20604;-61
2021/04/09 10:56:57;;;;;;;1.83;1.70;;;;;;;;;;4218962;33;20101;-60
2021/04/09 10:59:31;;;;;;;2.03;1.80;;;;;;;;;;4218860;34;20116;-60
2021/04/09 11:01:58;;;;;;;3.80;2.25;;;;;;;;;;4206075;34;20121;-61
2021/04/09 11:04:25;;;;;;;3.15;2.25;;;;;;;;;;4206355;34;20545;-61
2021/04/09 11:06:57;;;;;;;3.30;1.77;;;;;;;;;;4218747;33;20216;-61
2021/04/09 11:09:47;;;;;;;2.10;1.90;;;;;;;;;;4218926;34;20444;-61
2021/04/09 11:12:20;;;;;;;2.12;1.60;;;;;;;;;;4206920;34;20125;-61
2021/04/09 11:14:52;;;;;;;2.30;2.10;;;;;;;;;;4219092;34;20116;-61
2021/04/09 11:17:22;;;;;;;3.37;2.05;;;;;;;;;;4218901;33;20476;-61
2021/04/09 11:19:53;;;;;;;2.05;1.70;;;;;;;;;;4219048;34;20116;-61
2021/04/09 11:22:19;;;;;;;1.65;1.45;;;;;;;;;;4218987;33;20117;-61
2021/04/09 11:25:03;;;;;;;1.83;1.73;;;;;;;;;;4218961;34;20465;-62
2021/04/09 11:27:31;;;;;;;2.00;1.85;;;;;;;;;;4207531;34;21147;-61
2021/04/09 11:30:30;;;;;;;1.80;1.70;;;;;;;;;;4219330;34;20097;-62
2021/04/09 11:32:57;;;;;;;4.12;1.92;;;;;;;;;;4210566;34;20473;-61
2021/04/09 11:35:23;;;;;;;3.65;1.70;;;;;;;;;;4218848;34;20526;-61
2021/04/09 11:37:52;;;;;;;3.37;2.30;;;;;;;;;;4218739;33;20131;-61
2021/04/09 11:40:32;;;;;;;2.78;1.90;;;;;;;;;;4218946;34;20438;-60
2021/04/09 11:42:58;;;;;;;1.73;1.62;;;;;;;;;;4218749;34;20136;-61
2021/04/09 11:45:30;;;;;;;1.70;1.58;;;;;;;;;;4218815;34;20621;-61
2021/04/09 11:47:56;;;;;;;1.98;1.85;;;;;;;;;;4195048;34;20116;-61
2021/04/09 11:50:25;;;;;;;2.90;2.65;;;;;;;;;;4206073;34;20109;-60
2021/04/09 11:53:01;;;;;;;2.95;2.47;;;;;;;;;;4218624;34;20309;-60
2021/04/09 11:55:29;;;;;;;2.25;2.05;;;;;;;;;;4218635;33;20109;-60
2021/04/09 11:57:55;;;;;;;2.20;2.00;;;;;;;;;;4218650;34;20117;-60
2021/04/09 12:00:28;;;;;;;2.22;1.75;;;;;;;;;;4218554;34;20205;-61
2021/04/09 12:03:04;;;;;;;1.90;1.80;;;;;;;;;;4218604;34;20114;-61
2021/04/09 12:05:31;;;;;;;3.47;2.12;;;;;;;;;;4218535;33;20125;-61
2021/04/09 12:07:57;;;;;;;3.20;2.30;;;;;;;;;;4218373;34;20537;-59
2021/04/09 12:10:27;;;;;;;2.92;2.33;;;;;;;;;;4205757;34;20093;-61
2021/04/09 12:12:53;;;;;;;2.35;2.00;;;;;;;;;;4218728;34;20118;-60
2021/04/09 12:15:24;;;;;;;2.33;2.12;;;;;;;;;;4218846;34;20097;-61
2021/04/09 12:17:50;;;;;;;2.65;2.42;;;;;;;;;;4218750;34;20541;-61
2021/04/09 12:20:18;;;;;;;2.80;2.20;;;;;;;;;;4205158;34;20104;-60
2021/04/09 12:22:44;;;;;;;2.78;2.35;;;;;;;;;;4217952;34;20518;-61
2021/04/09 12:25:10;;;;;;;2.00;1.80;;;;;;;;;;4218448;34;20197;-60
2021/04/09 12:27:37;;;;;;;2.20;2.00;;;;;;;;;;4218295;34;20148;-60
2021/04/09 12:30:05;;;;;;;2.22;1.50;;;;;;;;;;4218426;34;20128;-60
2021/04/09 12:32:30;;;;;;;1.60;1.50;;;;;;;;;;4218309;34;20121;-60
2021/04/09 12:34:56;;;;;;;4.28;1.70;;;;;;;;;;4218281;34;20109;-61
2021/04/09 12:37:22;;;;;;;1.70;1.60;;;;;;;;;;4218261;34;20121;-60
2021/04/09 12:39:48;;;;;;;1.73;1.62;;;;;;;;;;4218227;34;20534;-60
2021/04/09 12:42:14;;;;;;;2.35;2.15;;;;;;;;;;4218174;34;20492;-59
2021/04/09 12:44:40;;;;;;;1.75;1.65;;;;;;;;;;4218227;34;20124;-60
2021/04/09 12:47:06;;;;;;;1.70;1.60;;;;;;;;;;4218384;34;20129;-59
2021/04/09 12:49:32;;;;;;;1.70;1.60;;;;;;;;;;4215045;34;20101;-59
2021/04/09 12:51:59;;;;;;;1.87;1.70;;;;;;;;;;4216514;33;20122;-60
2021/04/09 12:54:25;;;;;;;2.03;1.83;;;;;;;;;;4208127;34;20095;-61
2021/04/09 12:56:50;;;;;;;1.48;1.37;;;;;;;;;;4204538;34;20116;-60
2021/04/09 12:59:17;;;;;;;1.95;1.70;;;;;;;;;;4214041;34;20097;-59
2021/04/09 13:01:46;;;;;;;1.95;1.70;;;;;;;;;;4193316;34;20533;-59
2021/04/09 13:04:12;;;;;;;1.85;1.75;;;;;;;;;;4217510;34;20124;-59
2021/04/09 13:06:38;;;;;;;2.15;2.05;;;;;;;;;;4217427;34;20228;-61
2021/04/09 13:09:05;;;;;;;2.62;2.28;;;;;;;;;;4217850;34;20491;-60
2021/04/09 13:11:31;;;;;;;2.60;2.40;;;;;;;;;;4217866;34;20509;-59
2021/04/09 13:13:57;;;;;;;2.10;1.90;;;;;;;;;;4217875;34;20101;-60
2021/04/09 13:16:23;;;;;;;2.12;1.80;;;;;;;;;;4215157;34;20200;-59
2021/04/09 13:18:50;;;;;;;2.28;2.08;;;;;;;;;;4204832;34;20100;-59
2021/04/09 13:21:16;;;;;;;1.65;1.55;;;;;;;;;;4204343;34;20109;-60
2021/04/09 13:23:44;;;;;;;2.10;1.90;;;;;;;;;;4217645;34;20108;-60
2021/04/09 13:26:10;;;;;;;2.17;1.90;;;;;;;;;;4204511;34;20533;-60
2021/04/09 13:28:36;;;;;;;2.05;1.75;;;;;;;;;;4217744;34;20135;-60
2021/04/09 13:31:02;;;;;;;1.73;1.62;;;;;;;;;;4217542;34;20602;-59
2021/04/09 13:33:36;;;;;;;2.00;1.80;;;;;;;;;;4219128;34;20227;-59
2021/04/09 13:36:05;;;;;;;2.05;1.83;;;;;;;;;;4220044;34;20127;-60
2021/04/09 13:38:31;;;;;;;2.12;1.92;;;;;;;;;;4219816;34;20177;-62
2021/04/09 13:40:57;;;;;;;1.70;1.60;;;;;;;;;;4219813;34;20129;-60
2021/04/09 13:43:23;;;;;;;2.05;1.80;;;;;;;;;;4219827;34;20665;-61
2021/04/09 13:45:49;;;;;;;2.05;1.80;;;;;;;;;;4219804;34;20121;-60
2021/04/09 13:48:18;;;;;;;2.00;1.80;;;;;;;;;;4219761;34;20116;-62
2021/04/09 13:50:45;;;;;;;3.42;1.87;;;;;;;;;;4220086;34;20137;-60
2021/04/09 13:53:11;;;;;;;1.90;1.80;;;;;;;;;;4219741;34;20129;-60
2021/04/09 13:55:37;;;;;;;2.20;2.00;;;;;;;;;;4219655;34;20596;-60
2021/04/09 13:58:03;;;;;;;2.37;2.17;;;;;;;;;;4219556;34;20521;-61
2021/04/09 14:00:29;;;;;;;1.60;1.50;;;;;;;;;;4219575;34;20120;-60
2021/04/09 14:02:55;;;;;;;2.30;2.10;;;;;;;;;;4219578;34;20125;-60
2021/04/09 14:05:21;;;;;;;2.15;1.95;;;;;;;;;;4219638;34;20197;-60
2021/04/09 14:07:48;;;;;;;2.20;2.00;;;;;;;;;;4219500;34;20153;-61
2021/04/09 14:10:15;;;;;;;1.70;1.60;;;;;;;;;;4219671;34;20112;-61
2021/04/09 14:12:43;;;;;;;2.10;1.90;;;;;;;;;;4219562;34;20110;-61
2021/04/09 14:15:10;;;;;;;2.20;2.00;;;;;;;;;;4206920;34;20537;-60
2021/04/09 14:17:37;;;;;;;2.62;2.20;;;;;;;;;;4219471;34;20129;-60
2021/04/09 14:20:05;;;;;;;2.42;2.22;;;;;;;;;;4219493;34;20269;-61
2021/04/09 14:22:31;;;;;;;2.35;1.87;;;;;;;;;;4206390;34;20629;-60
2021/04/09 14:24:58;;;;;;;2.03;1.80;;;;;;;;;;4219401;34;20113;-60
2021/04/09 14:27:25;;;;;;;2.58;2.30;;;;;;;;;;4219357;34;20117;-60
2021/04/09 14:29:51;;;;;;;3.08;2.70;;;;;;;;;;4219634;34;20094;-60
2021/04/09 14:32:23;;;;;;;3.83;2.92;;;;;;;;;;4219518;34;20141;-62
2021/04/09 14:34:49;;;;;;;2.85;2.60;;;;;;;;;;4219508;34;20109;-61
2021/04/09 14:37:15;;;;;;;2.70;2.37;;;;;;;;;;4219443;34;20146;-62
2021/04/09 14:39:41;;;;;;;3.62;2.60;;;;;;;;;;4219208;34;20116;-61
2021/04/09 14:42:08;;;;;;;2.50;2.30;;;;;;;;;;4219592;34;20109;-60
2021/04/09 14:44:33;;;;;;;3.67;2.08;;;;;;;;;;4218720;34;20464;-60
2021/04/09 14:47:00;;;;;;;2.50;2.30;;;;;;;;;;4206313;34;20128;-60
2021/04/09 14:49:26;;;;;;;2.28;2.08;;;;;;;;;;4219141;34;20105;-60
2021/04/09 14:51:52;;;;;;;4.05;2.65;;;;;;;;;;4219105;34;20110;-60
2021/04/09 14:54:18;;;;;;;3.17;2.30;;;;;;;;;;4219274;34;20131;-60
2021/04/09 14:56:44;;;;;;;2.58;2.37;;;;;;;;;;4219136;34;20128;-59
2021/04/09 14:59:09;;;;;;;2.10;1.90;;;;;;;;;;4219175;34;20263;-58